Alexandra N — A8NR5 — position and weather

sailwx.info

Track history (hours):
 
Tides and Currents Weather Stations Pressure Air Temp Water Temp Dewpoint Dewpoint Depression Visibility Wind Speed Wind Dir Waves Ship Positions

Alexandra N

Last reported at 2015-May-11 03:03 UTC. Time now 2015-May-28 02:01 UTC.
Position N 31°22' E 032°20'.
Warning: this ship's position is 16 days out of date.

Length 184 m; draft 7.4 m.

Type: Cargo ship. MMSI: 636091436.

Date/timePositionNaut miles runAvg speedWind from/ knotsBaromVisibWave heightAir tempDewpointWater temp
2015-May-11 03:03N 31°22' E 032°20'1 1.8
2015-May-11 02:32N 31°22' E 032°19'0 0.1
2015-May-11 01:20N 31°21' E 032°19'0 0.0
2015-May-10 21:05N 31°21' E 032°20'0 0.0
2015-May-10 20:14N 31°21' E 032°20'0 0.0
2015-May-10 19:32N 31°21' E 032°20'0 0.0
2015-May-10 18:32N 31°21' E 032°20'0 0.0
2015-May-10 17:08N 31°21' E 032°20'0 0.0
2015-May-10 16:32N 31°21' E 032°20'0 0.0
2015-May-10 15:32N 31°21' E 032°20'0 0.0
2015-May-10 14:31N 31°21' E 032°20'336 7.3
2015-May-08 16:29N 35°29' E 027°47'18 9.2
2015-May-08 14:32N 35°42' E 027°33'18 8.9
2015-May-08 12:32N 35°56' E 027°19'36 8.9
2015-May-08 08:32N 36°24' E 026°51'1412.5
2015-May-08 07:23N 36°36' E 026°40'1012.5
2015-May-08 06:33N 36°44' E 026°32'1512.9
2015-May-08 05:22N 36°54' E 026°18'18 9.8
2015-May-08 03:33N 37°06' E 026°01'11 9.4
2015-May-08 02:20N 37°14' E 025°51'7 9.2
2015-May-08 01:33N 37°19' E 025°45'10 9.5
2015-May-08 00:33N 37°29' E 025°45'9 9.0
2015-May-07 23:33N 37°38' E 025°45'9 8.8
2015-May-07 22:33N 37°47' E 025°45'134 8.8
2015-May-07 07:21N 40°00' E 025°58'810.3
2015-May-07 06:31N 40°01' E 026°09'1510.7
2015-May-07 05:09N 40°12' E 026°23'2212.7
2015-May-07 03:27N 40°26' E 026°45'  
Track history (hours):
 
Tides and Currents Weather Stations Pressure Air Temp Water Temp Dewpoint Dewpoint Depression Visibility Wind Speed Wind Dir Waves Ship Positions

Alexandra N

Last reported at 2015-May-11 03:03 UTC. Time now 2015-May-28 02:01 UTC.
Position N 31°22' E 032°20'.
Warning: this ship's position is 16 days out of date.

Length 184 m; draft 7.4 m.

Type: Cargo ship. MMSI: 636091436.

Date/timePositionNaut miles runAvg speedWind from/ knotsBaromVisibWave heightAir tempDewpointWater temp
2015-May-11 03:03N 31°22' E 032°20'1 1.8
2015-May-11 02:32N 31°22' E 032°19'0 0.1
2015-May-11 01:20N 31°21' E 032°19'0 0.0
2015-May-10 21:05N 31°21' E 032°20'0 0.0
2015-May-10 20:14N 31°21' E 032°20'0 0.0
2015-May-10 19:32N 31°21' E 032°20'0 0.0
2015-May-10 18:32N 31°21' E 032°20'0 0.0
2015-May-10 17:08N 31°21' E 032°20'0 0.0
2015-May-10 16:32N 31°21' E 032°20'0 0.0
2015-May-10 15:32N 31°21' E 032°20'0 0.0
2015-May-10 14:31N 31°21' E 032°20'336 7.3
2015-May-08 16:29N 35°29' E 027°47'18 9.2
2015-May-08 14:32N 35°42' E 027°33'18 8.9
2015-May-08 12:32N 35°56' E 027°19'36 8.9
2015-May-08 08:32N 36°24' E 026°51'1412.5
2015-May-08 07:23N 36°36' E 026°40'1012.5
2015-May-08 06:33N 36°44' E 026°32'1512.9
2015-May-08 05:22N 36°54' E 026°18'18 9.8
2015-May-08 03:33N 37°06' E 026°01'11 9.4
2015-May-08 02:20N 37°14' E 025°51'7 9.2
2015-May-08 01:33N 37°19' E 025°45'10 9.5
2015-May-08 00:33N 37°29' E 025°45'9 9.0
2015-May-07 23:33N 37°38' E 025°45'9 8.8
2015-May-07 22:33N 37°47' E 025°45'134 8.8
2015-May-07 07:21N 40°00' E 025°58'810.3
2015-May-07 06:31N 40°01' E 026°09'1510.7
2015-May-07 05:09N 40°12' E 026°23'2212.7
2015-May-07 03:27N 40°26' E 026°45'  

Dump ship's entire track history